Time;durP1;ratioP1;P1;durP2;ratioP2;P2;SDS_P1;SDS_P2;PMS_P1;PMS_P2;Temp;Humidity;BMP_temperature;BMP_pressure;BME280_temperature;BME280_humidity;BME280_pressure;Samples;Min_cycle;Max_cycle;Signal;HPM_P1;HPM_P2
2022/11/22 00:00:45;;;;;;;1.27;1.20;;;6.60;98.00;;;;;;4995021;28;20473;-64
2022/11/22 00:03:12;;;;;;;1.77;1.30;;;6.60;98.00;;;;;;4994971;28;20502;-64
2022/11/22 00:05:39;;;;;;;1.87;1.43;;;6.60;98.00;;;;;;4995155;28;20467;-64
2022/11/22 00:08:07;;;;;;;2.13;1.27;;;6.70;98.00;;;;;;4994846;28;20457;-64
2022/11/22 00:10:34;;;;;;;2.43;1.53;;;6.70;98.00;;;;;;4994917;28;20471;-64
2022/11/22 00:13:02;;;;;;;1.60;1.27;;;6.70;98.00;;;;;;4994862;28;20461;-64
2022/11/22 00:15:29;;;;;;;1.77;1.13;;;6.80;98.00;;;;;;4994592;28;20486;-64
2022/11/22 00:17:58;;;;;;;1.33;1.20;;;6.70;98.00;;;;;;4995087;28;20507;-64
2022/11/22 00:20:25;;;;;;;1.53;1.17;;;6.80;98.00;;;;;;4994766;28;20461;-64
2022/11/22 00:22:53;;;;;;;3.40;1.23;;;6.80;98.00;;;;;;4995039;28;20466;-64
2022/11/22 00:25:20;;;;;;;2.33;1.83;;;6.90;98.00;;;;;;4994777;28;20657;-64
2022/11/22 00:27:47;;;;;;;1.70;1.20;;;6.80;98.00;;;;;;4995206;28;20494;-64
2022/11/22 00:30:14;;;;;;;1.20;1.13;;;6.80;98.00;;;;;;5009578;28;21097;-64
2022/11/22 00:32:41;;;;;;;3.67;1.90;;;6.80;98.00;;;;;;4994762;28;20468;-64
2022/11/22 00:35:11;;;;;;;2.27;1.50;;;6.80;98.00;;;;;;4994347;28;21071;-64
2022/11/22 00:37:39;;;;;;;2.13;1.40;;;6.70;98.00;;;;;;4994434;28;20460;-64
2022/11/22 00:40:07;;;;;;;3.40;1.50;;;6.90;98.00;;;;;;4994191;28;20451;-64
2022/11/22 00:42:34;;;;;;;1.80;1.40;;;6.90;98.00;;;;;;4994332;28;20831;-64
2022/11/22 00:45:02;;;;;;;1.23;1.17;;;7.10;98.00;;;;;;4994350;28;20457;-64
2022/11/22 00:47:29;;;;;;;1.60;1.43;;;7.10;98.00;;;;;;4994370;28;20451;-64
2022/11/22 00:49:57;;;;;;;1.60;1.17;;;7.10;98.00;;;;;;4993364;28;20969;-64
2022/11/22 00:52:25;;;;;;;1.40;1.20;;;7.00;98.00;;;;;;5008610;28;20666;-64
2022/11/22 00:54:52;;;;;;;1.30;1.27;;;6.90;98.00;;;;;;4993833;28;20534;-64
2022/11/22 00:57:19;;;;;;;1.80;1.43;;;6.90;98.00;;;;;;4993985;28;20981;-64
2022/11/22 00:59:46;;;;;;;2.73;1.60;;;7.00;98.00;;;;;;5009120;28;20465;-64
2022/11/22 01:02:13;;;;;;;1.50;1.33;;;7.10;98.00;;;;;;5008778;28;20516;-64
2022/11/22 01:04:41;;;;;;;1.73;1.37;;;6.90;98.00;;;;;;4993803;28;20459;-64
2022/11/22 01:07:09;;;;;;;2.13;1.50;;;6.90;98.00;;;;;;4993921;28;20469;-64
2022/11/22 01:09:37;;;;;;;1.20;1.10;;;6.90;98.00;;;;;;4993522;28;20470;-64
2022/11/22 01:12:21;;;;;;;1.27;1.23;;;6.80;98.00;;;;;;4993572;28;20463;-64
2022/11/22 01:14:48;;;;;;;2.03;1.37;;;6.80;98.00;;;;;;4993628;28;20487;-64
2022/11/22 01:17:16;;;;;;;1.87;1.20;;;6.80;98.00;;;;;;4993963;28;20463;-64
2022/11/22 01:19:43;;;;;;;2.40;1.37;;;6.80;98.00;;;;;;4993835;28;20467;-64
2022/11/22 01:22:10;;;;;;;1.67;1.57;;;6.80;98.00;;;;;;4993448;28;20462;-64
2022/11/22 01:24:40;;;;;;;1.20;1.07;;;6.80;98.00;;;;;;4993836;28;20465;-64
2022/11/22 01:27:07;;;;;;;1.60;1.10;;;6.80;98.00;;;;;;4993336;28;20454;-64
2022/11/22 01:29:34;;;;;;;1.43;1.40;;;6.80;98.00;;;;;;4993429;28;20453;-64
2022/11/22 01:32:01;;;;;;;1.20;1.03;;;7.00;98.00;;;;;;4993153;28;20503;-64
2022/11/22 01:34:28;;;;;;;2.43;1.67;;;7.00;98.00;;;;;;4993177;28;20480;-64
2022/11/22 01:36:55;;;;;;;1.90;1.30;;;6.90;98.00;;;;;;4993215;28;20456;-64
2022/11/22 01:39:23;;;;;;;3.17;1.30;;;6.80;98.00;;;;;;5008439;28;20464;-64
2022/11/22 01:41:51;;;;;;;2.30;2.00;;;6.80;98.00;;;;;;4993368;28;20457;-64
2022/11/22 01:44:20;;;;;;;1.33;1.23;;;6.80;98.00;;;;;;4992916;28;20458;-64
2022/11/22 01:46:51;;;;;;;1.63;1.30;;;6.80;98.00;;;;;;4993073;28;20462;-64
2022/11/22 01:49:26;;;;;;;1.47;1.40;;;6.80;98.00;;;;;;4992871;28;20472;-64
2022/11/22 01:51:58;;;;;;;1.60;1.60;;;6.80;98.00;;;;;;4992839;28;20551;-64
2022/11/22 01:54:29;;;;;;;2.37;1.60;;;7.00;98.00;;;;;;4992903;28;20493;-64
2022/11/22 01:57:03;;;;;;;2.03;1.80;;;7.10;98.00;;;;;;4992891;28;20460;-64
2022/11/22 01:59:33;;;;;;;2.80;1.93;;;7.10;98.00;;;;;;4992913;28;20461;-64
2022/11/22 02:02:00;;;;;;;1.33;1.33;;;7.00;98.00;;;;;;4992449;28;20476;-64
2022/11/22 02:04:30;;;;;;;1.50;1.50;;;6.90;98.00;;;;;;4993140;28;20812;-64
2022/11/22 02:07:03;;;;;;;1.77;1.70;;;6.90;98.00;;;;;;4992720;28;20970;-64
2022/11/22 02:09:30;;;;;;;2.47;1.63;;;6.80;98.00;;;;;;4992758;28;20875;-64
2022/11/22 02:12:03;;;;;;;1.70;1.40;;;6.70;98.00;;;;;;5007508;28;20519;-64
2022/11/22 02:14:31;;;;;;;2.43;1.57;;;6.90;98.00;;;;;;4992793;28;20496;-64
2022/11/22 02:16:58;;;;;;;13.43;2.07;;;6.90;98.00;;;;;;5007349;28;20461;-64
2022/11/22 02:19:37;;;;;;;1.70;1.30;;;7.00;98.00;;;;;;4992471;28;20461;-64
2022/11/22 02:22:14;;;;;;;1.83;1.43;;;7.20;98.00;;;;;;4992599;28;20534;-64
2022/11/22 02:24:49;;;;;;;1.87;1.57;;;7.20;98.00;;;;;;4992421;28;20462;-64
2022/11/22 02:27:18;;;;;;;3.30;1.77;;;7.30;98.00;;;;;;4992262;28;20457;-64
2022/11/22 02:29:45;;;;;;;2.33;1.50;;;7.10;98.00;;;;;;4992270;28;20472;-64
2022/11/22 02:32:12;;;;;;;1.70;1.50;;;7.00;98.00;;;;;;4992187;28;20481;-64
2022/11/22 02:34:44;;;;;;;2.00;1.40;;;7.00;98.00;;;;;;4992148;28;20993;-64
2022/11/22 02:37:15;;;;;;;3.60;1.60;;;6.90;98.00;;;;;;5006799;28;20471;-64
2022/11/22 02:39:45;;;;;;;1.60;1.20;;;6.80;98.00;;;;;;4992188;28;20461;-64
2022/11/22 02:42:12;;;;;;;2.13;1.40;;;6.80;98.00;;;;;;4992183;28;20558;-64
2022/11/22 02:44:41;;;;;;;4.20;1.70;;;6.80;98.00;;;;;;4992166;28;20468;-64
2022/11/22 02:47:08;;;;;;;1.80;1.50;;;6.90;98.00;;;;;;4992013;28;20461;-64
2022/11/22 02:49:35;;;;;;;2.00;1.43;;;6.90;98.00;;;;;;4991943;28;20473;-64
2022/11/22 02:52:02;;;;;;;1.77;1.50;;;7.10;98.00;;;;;;4991906;28;20458;-64
2022/11/22 02:54:30;;;;;;;3.37;1.67;;;7.20;98.00;;;;;;4992065;28;20483;-64
2022/11/22 02:56:57;;;;;;;2.13;1.50;;;7.20;98.00;;;;;;4991896;28;20453;-64
2022/11/22 02:59:24;;;;;;;1.60;1.50;;;7.20;98.00;;;;;;4992346;28;20470;-64
2022/11/22 03:01:52;;;;;;;1.77;1.43;;;7.10;98.00;;;;;;4991569;28;20458;-64
2022/11/22 03:04:25;;;;;;;3.60;2.17;;;7.20;98.00;;;;;;4991834;28;20871;-64
2022/11/22 03:06:54;;;;;;;1.60;1.37;;;7.20;98.00;;;;;;4992126;28;21017;-64
2022/11/22 03:09:21;;;;;;;2.43;1.73;;;7.00;98.00;;;;;;5007146;28;20461;-64
2022/11/22 03:11:48;;;;;;;1.50;1.40;;;7.00;98.00;;;;;;4991881;28;20972;-64
2022/11/22 03:14:16;;;;;;;1.47;1.40;;;7.00;98.00;;;;;;4993681;28;20461;-64
2022/11/22 03:16:51;;;;;;;1.50;1.43;;;6.80;98.00;;;;;;4995832;28;20843;-64
2022/11/22 03:19:19;;;;;;;1.87;1.70;;;6.80;98.00;;;;;;5009897;28;20706;-64
2022/11/22 03:21:47;;;;;;;1.60;1.20;;;6.80;98.00;;;;;;4995797;28;20810;-64
2022/11/22 03:24:14;;;;;;;2.77;1.30;;;6.80;98.00;;;;;;4995671;28;20460;-64
2022/11/22 03:26:41;;;;;;;1.47;1.33;;;6.80;98.00;;;;;;4995626;28;20455;-64
2022/11/22 03:29:08;;;;;;;1.50;1.23;;;6.80;98.00;;;;;;4995621;28;20524;-64
2022/11/22 03:31:36;;;;;;;1.93;1.30;;;6.80;98.00;;;;;;5010448;28;20478;-64
2022/11/22 03:34:04;;;;;;;1.27;1.23;;;6.80;98.00;;;;;;4995559;28;20862;-64
2022/11/22 03:36:32;;;;;;;5.47;1.57;;;6.90;98.00;;;;;;5010409;28;20900;-64
2022/11/22 03:38:59;;;;;;;1.67;1.40;;;6.80;98.00;;;;;;4995410;28;20465;-64
2022/11/22 03:41:27;;;;;;;2.77;1.87;;;6.90;98.00;;;;;;4995252;28;20460;-64
2022/11/22 03:43:55;;;;;;;1.80;1.50;;;6.80;98.00;;;;;;4995334;28;20883;-64
2022/11/22 03:46:22;;;;;;;2.33;1.97;;;6.70;98.00;;;;;;4995545;28;20464;-64
2022/11/22 03:48:49;;;;;;;1.83;1.43;;;6.80;98.00;;;;;;4995008;28;20453;-64
2022/11/22 03:51:16;;;;;;;2.50;1.67;;;6.80;98.00;;;;;;4995300;28;20513;-64
2022/11/22 03:53:44;;;;;;;1.47;1.27;;;6.80;98.00;;;;;;4995292;28;20470;-64
2022/11/22 03:56:11;;;;;;;1.67;1.40;;;6.80;98.00;;;;;;4994988;28;20478;-64
2022/11/22 03:58:39;;;;;;;2.57;1.23;;;6.80;98.00;;;;;;4995078;28;20977;-64
2022/11/22 04:01:06;;;;;;;1.37;1.13;;;6.70;98.00;;;;;;4995164;28;20535;-64
2022/11/22 04:03:34;;;;;;;2.03;1.47;;;6.70;98.00;;;;;;4995337;28;20461;-64
2022/11/22 04:06:01;;;;;;;1.83;1.70;;;6.60;98.00;;;;;;4995042;28;20507;-64
2022/11/22 04:08:28;;;;;;;1.70;1.60;;;6.50;98.00;;;;;;4995072;28;20456;-64
2022/11/22 04:10:56;;;;;;;3.30;1.77;;;6.60;98.00;;;;;;4994869;28;20448;-64
2022/11/22 04:15:05;;;;;;;5.90;1.67;;;6.60;98.00;;;;;;4994934;28;20847;-64
2022/11/22 04:16:10;;;;;;;1.50;1.20;;;6.70;98.00;;;;;;4994451;28;20838;-64
2022/11/22 04:18:37;;;;;;;2.23;1.47;;;6.60;98.00;;;;;;4994771;28;20464;-64
2022/11/22 04:25:12;;;;;;;1.60;1.50;;;6.50;98.00;;;;;;4994943;28;20955;-64
2022/11/22 04:26:37;;;;;;;1.67;1.50;;;6.50;98.00;;;;;;4994360;28;20457;-64
2022/11/22 04:29:04;;;;;;;2.60;1.27;;;6.60;98.00;;;;;;4994425;28;20460;-64
2022/11/22 04:34:15;;;;;;;15.03;1.50;;;6.70;98.00;;;;;;4994590;28;21025;-64
2022/11/22 04:36:43;;;;;;;2.57;1.67;;;6.60;98.00;;;;;;4994396;28;20520;-64
2022/11/22 04:39:10;;;;;;;2.30;1.43;;;6.60;98.00;;;;;;5009544;28;20468;-64
2022/11/22 04:41:38;;;;;;;2.13;1.60;;;6.60;98.00;;;;;;4994390;28;20466;-64
2022/11/22 04:46:50;;;;;;;1.20;1.20;;;6.70;98.00;;;;;;4994509;28;20491;-64
2022/11/22 04:49:17;;;;;;;3.20;1.33;;;6.70;98.00;;;;;;4995295;28;20960;-64
2022/11/22 04:54:28;;;;;;;2.23;1.50;;;6.60;98.00;;;;;;4995532;28;20446;-64
2022/11/22 04:56:57;;;;;;;1.90;1.37;;;6.50;98.00;;;;;;4994144;28;20832;-64
2022/11/22 04:59:24;;;;;;;1.50;1.20;;;6.50;98.00;;;;;;4994464;28;20477;-64
2022/11/22 05:01:52;;;;;;;1.77;1.40;;;6.40;98.00;;;;;;4994386;28;20828;-64
2022/11/22 05:04:19;;;;;;;1.20;1.13;;;6.40;98.00;;;;;;4994460;28;20468;-64
2022/11/22 05:06:46;;;;;;;1.83;1.50;;;6.40;98.00;;;;;;4994161;28;20459;-64
2022/11/22 05:09:14;;;;;;;1.53;1.30;;;6.40;98.00;;;;;;5009021;28;20862;-64
2022/11/22 05:11:41;;;;;;;1.37;1.20;;;6.30;98.00;;;;;;5008861;28;20466;-64
2022/11/22 05:14:11;;;;;;;2.47;1.50;;;6.20;98.00;;;;;;4993736;28;20468;-64
2022/11/22 05:16:38;;;;;;;1.20;1.10;;;6.00;98.00;;;;;;4993673;28;20489;-64
2022/11/22 05:19:05;;;;;;;2.80;1.50;;;5.90;98.00;;;;;;4993668;28;20868;-64
2022/11/22 05:21:34;;;;;;;2.00;1.27;;;6.00;98.00;;;;;;4993666;28;20827;-64
2022/11/22 05:24:00;;;;;;;1.50;1.27;;;6.00;98.00;;;;;;4993339;28;20998;-64
2022/11/22 05:26:29;;;;;;;1.20;1.00;;;6.10;98.00;;;;;;4993414;28;20553;-64
2022/11/22 05:28:56;;;;;;;1.10;0.90;;;6.20;98.00;;;;;;4993672;28;20480;-64
2022/11/22 05:31:42;;;;;;;1.97;1.13;;;6.10;98.00;;;;;;5008488;28;20461;-64
2022/11/22 05:34:09;;;;;;;1.20;1.10;;;6.20;98.00;;;;;;4993391;28;20469;-64
2022/11/22 05:36:36;;;;;;;1.20;1.00;;;6.10;98.00;;;;;;4992824;28;20520;-64
2022/11/22 05:39:04;;;;;;;1.50;1.27;;;6.00;98.00;;;;;;4993207;28;20461;-64
2022/11/22 05:41:31;;;;;;;1.10;0.93;;;5.90;98.00;;;;;;4993220;28;20657;-64
2022/11/22 05:43:59;;;;;;;3.30;1.43;;;5.90;98.00;;;;;;4993221;28;20458;-64
2022/11/22 05:46:28;;;;;;;3.00;1.40;;;5.90;98.00;;;;;;4992966;28;20975;-64
2022/11/22 05:48:59;;;;;;;1.30;1.07;;;5.90;98.00;;;;;;4993220;28;20457;-65
2022/11/22 05:51:28;;;;;;;1.13;1.00;;;5.90;98.00;;;;;;4993308;28;20463;-64
2022/11/22 05:53:56;;;;;;;1.30;1.27;;;5.90;98.00;;;;;;4993245;28;20471;-64
2022/11/22 05:56:24;;;;;;;2.33;1.60;;;5.70;98.00;;;;;;4993037;28;20491;-64
2022/11/22 05:58:52;;;;;;;1.20;1.07;;;5.70;98.00;;;;;;4992967;28;20448;-64
2022/11/22 06:01:21;;;;;;;1.30;1.30;;;5.70;98.00;;;;;;4992802;28;20490;-64
2022/11/22 06:03:49;;;;;;;1.87;1.60;;;5.80;98.00;;;;;;4992701;28;20466;-64
2022/11/22 06:06:18;;;;;;;1.20;1.10;;;5.80;98.00;;;;;;4992656;28;20464;-64
2022/11/22 06:08:46;;;;;;;1.40;1.37;;;5.70;98.00;;;;;;4992675;28;20849;-64
2022/11/22 06:11:19;;;;;;;4.93;1.90;;;5.60;98.00;;;;;;4992697;28;20527;-64
2022/11/22 06:13:49;;;;;;;1.33;1.10;;;5.60;98.00;;;;;;4992570;28;20856;-64
2022/11/22 06:16:16;;;;;;;1.10;0.97;;;5.60;98.00;;;;;;4992575;28;20483;-64
2022/11/22 06:18:44;;;;;;;1.20;1.10;;;5.50;98.00;;;;;;4992485;28;20462;-64
2022/11/22 06:21:13;;;;;;;3.90;1.27;;;5.50;98.00;;;;;;4992172;28;20470;-64
2022/11/22 06:23:41;;;;;;;1.20;1.10;;;5.40;98.00;;;;;;4992373;28;20479;-64
2022/11/22 06:26:10;;;;;;;2.37;1.30;;;5.40;98.00;;;;;;4992231;28;20462;-64
2022/11/22 06:28:39;;;;;;;1.13;1.00;;;5.30;98.00;;;;;;4992264;28;20482;-64
2022/11/22 06:31:07;;;;;;;1.33;1.20;;;5.40;98.00;;;;;;4992126;28;20469;-64
2022/11/22 06:33:35;;;;;;;2.23;1.30;;;5.40;98.00;;;;;;4992321;28;20457;-64
2022/11/22 06:36:03;;;;;;;1.73;1.10;;;5.50;98.00;;;;;;4991933;28;20534;-64
2022/11/22 06:38:31;;;;;;;1.30;1.10;;;5.50;98.00;;;;;;4992283;28;20466;-64
2022/11/22 06:41:01;;;;;;;1.60;1.27;;;5.50;98.00;;;;;;4992205;28;20589;-64
2022/11/22 06:43:29;;;;;;;1.30;1.10;;;5.60;98.00;;;;;;4992313;28;21002;-64
2022/11/22 06:46:01;;;;;;;1.57;1.20;;;5.60;98.00;;;;;;4992047;28;20982;-64
2022/11/22 06:48:30;;;;;;;1.40;1.40;;;5.50;98.00;;;;;;4991716;28;20991;-64
2022/11/22 06:50:59;;;;;;;1.50;1.13;;;5.60;98.00;;;;;;4992113;28;20481;-64
2022/11/22 06:53:28;;;;;;;1.60;1.43;;;5.70;98.00;;;;;;4992018;28;20958;-64
2022/11/22 06:56:01;;;;;;;1.27;1.27;;;5.70;98.00;;;;;;4991747;28;20494;-64
2022/11/22 06:58:28;;;;;;;2.33;1.50;;;5.70;98.00;;;;;;4992113;28;20847;-64
2022/11/22 07:01:00;;;;;;;3.70;1.93;;;5.80;98.00;;;;;;4991919;28;20841;-64
2022/11/22 07:03:27;;;;;;;3.10;1.63;;;5.80;98.00;;;;;;4992091;28;20466;-64
2022/11/22 07:05:54;;;;;;;2.50;1.73;;;5.80;98.00;;;;;;4991821;28;20449;-64
2022/11/22 07:08:22;;;;;;;4.83;2.37;;;5.80;98.00;;;;;;4991927;28;20870;-64
2022/11/22 07:10:49;;;;;;;2.17;1.90;;;5.80;98.00;;;;;;4991708;28;20815;-64
2022/11/22 07:13:18;;;;;;;1.40;1.30;;;5.90;98.00;;;;;;4991874;28;20464;-64
2022/11/22 07:15:54;;;;;;;6.63;1.43;;;6.10;98.00;;;;;;5006612;28;20483;-64
2022/11/22 07:18:22;;;;;;;1.70;1.50;;;6.00;98.00;;;;;;4991714;28;20552;-64
2022/11/22 07:20:50;;;;;;;5.03;1.67;;;5.80;98.00;;;;;;4991585;28;20465;-64
2022/11/22 07:23:17;;;;;;;3.00;1.83;;;5.80;98.00;;;;;;4991653;28;20456;-64
2022/11/22 07:25:45;;;;;;;1.70;1.40;;;5.80;98.00;;;;;;4991633;28;20465;-64
2022/11/22 07:28:12;;;;;;;1.30;1.10;;;5.90;98.00;;;;;;4991704;28;20459;-64
2022/11/22 07:30:41;;;;;;;2.27;1.73;;;5.90;98.00;;;;;;4991952;28;20483;-64
2022/11/22 07:33:09;;;;;;;3.00;1.60;;;6.00;98.00;;;;;;4991529;28;20458;-64
2022/11/22 07:35:37;;;;;;;1.87;1.30;;;6.00;98.00;;;;;;4991620;28;20468;-64
2022/11/22 07:38:04;;;;;;;2.13;1.60;;;6.00;98.00;;;;;;4991792;28;20842;-64
2022/11/22 07:40:31;;;;;;;1.70;1.33;;;5.90;98.00;;;;;;4991791;28;20958;-64
2022/11/22 07:42:59;;;;;;;1.50;1.40;;;5.90;98.00;;;;;;4991695;28;20460;-61
2022/11/22 07:45:26;;;;;;;2.00;1.50;;;6.00;98.00;;;;;;4991729;28;20470;-61
2022/11/22 07:47:54;;;;;;;1.83;1.63;;;6.00;98.00;;;;;;4991433;28;20555;-61
2022/11/22 07:50:21;;;;;;;8.67;2.00;;;6.00;98.00;;;;;;4991581;28;20473;-60
2022/11/22 07:52:55;;;;;;;3.00;1.73;;;6.00;98.00;;;;;;4991275;28;20522;-60
2022/11/22 07:55:24;;;;;;;1.77;1.67;;;6.10;98.00;;;;;;4991760;28;20896;-60
2022/11/22 07:57:51;;;;;;;1.70;1.40;;;6.00;98.00;;;;;;4991489;28;20486;-61
2022/11/22 08:00:19;;;;;;;2.13;1.63;;;6.00;98.00;;;;;;4993202;28;20452;-61
2022/11/22 08:02:46;;;;;;;2.80;1.90;;;6.10;98.00;;;;;;4995222;28;20465;-61
2022/11/22 08:05:17;;;;;;;2.47;1.60;;;6.20;98.00;;;;;;5009955;28;20955;-61
2022/11/22 08:07:47;;;;;;;3.93;2.20;;;6.20;98.00;;;;;;4995086;28;20461;-61
2022/11/22 08:10:16;;;;;;;1.97;1.60;;;6.50;98.00;;;;;;4994844;28;20549;-61
2022/11/22 08:12:43;;;;;;;1.60;1.47;;;6.60;98.00;;;;;;4994659;28;20474;-61
2022/11/22 08:15:11;;;;;;;2.80;1.93;;;6.60;98.00;;;;;;4994753;28;20456;-61
2022/11/22 08:17:38;;;;;;;3.60;2.20;;;6.60;98.00;;;;;;4994631;28;21077;-61
2022/11/22 08:20:08;;;;;;;1.50;1.43;;;6.50;98.00;;;;;;4994637;28;20456;-61
2022/11/22 08:22:37;;;;;;;1.50;1.40;;;6.40;98.00;;;;;;4994755;28;20901;-61
2022/11/22 08:25:11;;;;;;;2.77;2.00;;;6.50;98.00;;;;;;4994514;28;20463;-61
2022/11/22 08:27:40;;;;;;;4.20;2.23;;;6.40;98.00;;;;;;4994483;28;20541;-61
2022/11/22 08:30:08;;;;;;;4.10;2.50;;;6.40;98.00;;;;;;4994561;28;20453;-61
2022/11/22 08:32:35;;;;;;;2.40;1.80;;;6.50;98.00;;;;;;4975194;28;20512;-60
2022/11/22 08:35:02;;;;;;;2.47;1.90;;;6.50;98.00;;;;;;4975242;28;20778;-61
2022/11/22 08:37:31;;;;;;;3.03;1.70;;;6.70;98.00;;;;;;4975115;28;20507;-60
2022/11/22 08:39:59;;;;;;;7.43;1.80;;;6.80;98.00;;;;;;4975141;28;20567;-60
2022/11/22 08:42:26;;;;;;;2.20;1.70;;;6.90;98.00;;;;;;4974811;28;20466;-61
2022/11/22 08:44:54;;;;;;;2.13;1.90;;;6.80;98.00;;;;;;4974952;28;20451;-61
2022/11/22 08:47:21;;;;;;;4.03;2.10;;;6.80;98.00;;;;;;4975510;28;20457;-61
2022/11/22 08:49:48;;;;;;;2.10;1.80;;;6.80;98.00;;;;;;4975419;28;20470;-61
2022/11/22 08:52:15;;;;;;;4.03;2.03;;;6.80;98.00;;;;;;4975233;28;20851;-61
2022/11/22 08:54:42;;;;;;;2.03;1.63;;;6.80;98.00;;;;;;4970597;28;20468;-61
2022/11/22 08:57:11;;;;;;;3.67;2.50;;;6.90;98.00;;;;;;4972299;28;21014;-61
2022/11/22 08:59:38;;;;;;;3.10;2.13;;;7.10;98.00;;;;;;4972561;28;20475;-61
2022/11/22 09:02:05;;;;;;;5.07;2.63;;;7.40;98.00;;;;;;4972337;28;20475;-61
2022/11/22 09:04:32;;;;;;;3.40;2.60;;;7.50;98.00;;;;;;4972261;28;20507;-60
2022/11/22 09:06:59;;;;;;;4.23;2.47;;;7.50;98.00;;;;;;4972137;28;20469;-61
2022/11/22 09:09:27;;;;;;;3.07;2.20;;;7.60;98.00;;;;;;4972253;28;20561;-61
2022/11/22 09:11:54;;;;;;;4.77;2.67;;;7.60;98.00;;;;;;4970956;28;20590;-61
2022/11/22 09:14:22;;;;;;;3.83;2.00;;;7.60;98.00;;;;;;4972080;28;20486;-61
2022/11/22 09:16:49;;;;;;;4.90;2.73;;;7.60;98.00;;;;;;4972020;28;20537;-61
2022/11/22 09:19:17;;;;;;;3.93;2.30;;;7.50;98.00;;;;;;4972040;28;20822;-61
2022/11/22 09:21:44;;;;;;;3.97;2.20;;;7.50;98.00;;;;;;4971744;28;20481;-61
2022/11/22 09:24:11;;;;;;;2.57;1.83;;;7.50;98.00;;;;;;4972009;28;20532;-61
2022/11/22 09:26:38;;;;;;;4.57;2.37;;;7.60;98.00;;;;;;4971863;28;20462;-61
2022/11/22 09:29:05;;;;;;;6.20;2.13;;;7.60;98.00;;;;;;4971812;28;20465;-63
2022/11/22 09:31:33;;;;;;;4.90;2.47;;;7.70;98.00;;;;;;4972021;28;20514;-61
2022/11/22 09:34:00;;;;;;;2.43;1.57;;;7.80;98.00;;;;;;4971710;28;20983;-61
2022/11/22 09:36:27;;;;;;;2.00;1.90;;;7.90;98.00;;;;;;4971935;28;20516;-63
2022/11/22 09:38:55;;;;;;;5.13;2.57;;;8.10;98.00;;;;;;4971774;28;20881;-62
2022/11/22 09:41:53;;;;;;;1.40;1.23;;;8.10;98.00;;;;;;4954696;28;20950;-59
2022/11/22 09:44:28;;;;;;;2.60;1.20;;;8.70;98.00;;;;;;4971458;28;20466;-59
2022/11/22 09:47:00;;;;;;;4.50;2.43;;;9.90;98.00;;;;;;4971358;28;20456;-61
2022/11/22 09:49:29;;;;;;;3.30;2.20;;;10.60;98.00;;;;;;4968021;28;20475;-63
2022/11/22 09:52:06;;;;;;;5.13;2.57;;;10.70;98.00;;;;;;4969034;28;20464;-61
2022/11/22 09:54:41;;;;;;;5.27;2.33;;;10.40;98.00;;;;;;4971395;28;20462;-61
2022/11/22 09:57:14;;;;;;;6.80;2.60;;;10.20;98.00;;;;;;4970992;28;20572;-61
2022/11/22 09:59:45;;;;;;;4.53;2.20;;;9.70;98.00;;;;;;4971409;28;20497;-62
2022/11/22 10:02:20;;;;;;;3.20;2.10;;;9.60;98.00;;;;;;4971201;28;20462;-63
2022/11/22 10:04:54;;;;;;;4.60;2.50;;;9.30;98.00;;;;;;4971608;28;20552;-62
2022/11/22 10:07:27;;;;;;;2.47;1.80;;;9.10;98.00;;;;;;4971074;28;20501;-62
2022/11/22 10:10:02;;;;;;;2.03;1.60;;;8.90;98.00;;;;;;4970511;28;20520;-61
2022/11/22 10:12:38;;;;;;;1.37;1.33;;;8.90;98.00;;;;;;4970718;28;20461;-62
2022/11/22 10:15:16;;;;;;;1.50;1.40;;;8.90;98.00;;;;;;4969244;28;20501;-62
2022/11/22 10:17:52;;;;;;;2.40;1.27;;;8.90;98.00;;;;;;4970972;28;20900;-61
2022/11/22 10:20:20;;;;;;;1.50;1.30;;;8.80;98.00;;;;;;4970839;28;20966;-62
2022/11/22 10:22:48;;;;;;;1.47;1.10;;;8.90;98.00;;;;;;4969431;28;20456;-61
2022/11/22 10:25:20;;;;;;;1.30;1.20;;;8.80;98.00;;;;;;4971069;28;21020;-61
2022/11/22 10:27:53;;;;;;;1.20;1.20;;;8.80;98.00;;;;;;4970353;28;20882;-61
2022/11/22 10:30:24;;;;;;;1.90;1.27;;;8.80;98.00;;;;;;4970832;28;20468;-61
2022/11/22 10:33:10;;;;;;;1.33;1.20;;;8.70;98.00;;;;;;4953660;28;20470;-62
2022/11/22 10:35:56;;;;;;;3.30;1.53;;;8.70;98.00;;;;;;4971182;28;20459;-63
2022/11/22 10:38:56;;;;;;;1.40;1.30;;;8.70;98.00;;;;;;4970364;28;20501;-61
2022/11/22 10:41:35;;;;;;;1.23;1.20;;;8.70;98.00;;;;;;4970233;28;20571;-62
2022/11/22 10:44:15;;;;;;;1.30;1.23;;;8.70;98.00;;;;;;4970192;28;20902;-61
2022/11/22 10:46:56;;;;;;;3.77;1.40;;;8.60;98.00;;;;;;4970580;28;20478;-62
2022/11/22 10:49:44;;;;;;;1.27;1.17;;;8.60;98.00;;;;;;4969230;28;20524;-62
2022/11/22 10:52:23;;;;;;;1.20;1.10;;;8.60;98.00;;;;;;4970556;28;20469;-62
2022/11/22 10:55:03;;;;;;;1.27;1.03;;;8.60;98.00;;;;;;4970384;28;20468;-61
2022/11/22 10:57:37;;;;;;;4.67;1.87;;;8.70;98.00;;;;;;4970367;28;20747;-61
2022/11/22 11:00:17;;;;;;;4.97;1.60;;;8.80;98.00;;;;;;4970257;28;20459;-61
2022/11/22 11:02:59;;;;;;;1.50;1.10;;;8.90;98.00;;;;;;4970404;28;20465;-63
2022/11/22 11:05:34;;;;;;;1.60;1.43;;;9.10;98.00;;;;;;4970176;28;20457;-62
2022/11/22 11:08:02;;;;;;;2.03;1.50;;;9.20;98.00;;;;;;4970188;28;20482;-61
2022/11/22 11:10:35;;;;;;;1.30;1.20;;;9.20;98.00;;;;;;4970430;28;20520;-61
2022/11/22 11:13:06;;;;;;;1.60;1.50;;;9.30;98.00;;;;;;4953428;28;21237;-61
2022/11/22 11:15:39;;;;;;;2.47;1.60;;;9.30;98.00;;;;;;4969415;28;20505;-61
2022/11/22 11:18:17;;;;;;;1.40;1.33;;;9.40;98.00;;;;;;4953752;28;20505;-61
2022/11/22 11:20:46;;;;;;;1.20;1.00;;;9.40;98.00;;;;;;4970602;28;20472;-61
2022/11/22 11:23:15;;;;;;;1.47;1.20;;;9.30;98.00;;;;;;4970350;28;20463;-61
2022/11/22 11:25:44;;;;;;;1.77;1.30;;;9.20;98.00;;;;;;4970351;28;20461;-61
2022/11/22 11:28:17;;;;;;;1.77;1.30;;;9.20;98.00;;;;;;4970122;28;20461;-61
2022/11/22 11:30:48;;;;;;;1.50;1.27;;;9.30;98.00;;;;;;4970120;28;20555;-61
2022/11/22 11:33:20;;;;;;;1.20;1.10;;;9.30;98.00;;;;;;4969913;28;20467;-61
2022/11/22 11:35:50;;;;;;;1.30;1.20;;;9.30;98.00;;;;;;4972643;28;20842;-61
2022/11/22 11:38:33;;;;;;;1.70;1.10;;;9.30;98.00;;;;;;4973691;28;20500;-61
2022/11/22 11:41:17;;;;;;;1.63;1.10;;;9.20;98.00;;;;;;4956702;28;20540;-61
2022/11/22 11:43:45;;;;;;;1.23;1.10;;;9.30;98.00;;;;;;4956750;28;20509;-61
2022/11/22 11:46:17;;;;;;;1.40;1.40;;;9.30;98.00;;;;;;4956482;28;20462;-62
2022/11/22 11:48:45;;;;;;;1.13;1.07;;;9.40;98.00;;;;;;4973511;28;20552;-62
2022/11/22 11:51:24;;;;;;;1.67;1.20;;;9.50;98.00;;;;;;4954870;28;20869;-62
2022/11/22 11:53:58;;;;;;;1.33;1.00;;;9.50;98.00;;;;;;4973499;28;21002;-61
2022/11/22 11:56:40;;;;;;;1.50;1.20;;;9.50;98.00;;;;;;4973499;28;20464;-61
2022/11/22 11:59:13;;;;;;;1.83;1.10;;;9.50;98.00;;;;;;4973742;28;21163;-61
2022/11/22 12:01:54;;;;;;;1.93;1.40;;;9.50;98.00;;;;;;4973418;28;20530;-61
2022/11/22 12:04:24;;;;;;;1.20;1.10;;;9.50;98.00;;;;;;4973594;28;20461;-61
2022/11/22 12:07:01;;;;;;;1.30;1.10;;;9.50;98.00;;;;;;4973321;28;20461;-61
2022/11/22 12:09:33;;;;;;;2.07;1.30;;;9.60;98.00;;;;;;4973630;28;20457;-62
2022/11/22 12:12:08;;;;;;;1.27;1.10;;;9.60;98.00;;;;;;4973489;28;20464;-63
2022/11/22 12:14:39;;;;;;;1.73;1.27;;;9.60;98.00;;;;;;4964806;28;20465;-62
2022/11/22 12:17:18;;;;;;;1.20;1.00;;;9.60;98.00;;;;;;4965619;28;20484;-62
2022/11/22 12:19:54;;;;;;;1.60;1.30;;;9.70;98.00;;;;;;4973115;28;20483;-61
2022/11/22 12:22:30;;;;;;;1.30;1.10;;;9.80;98.00;;;;;;4973245;28;20472;-61
2022/11/22 12:25:04;;;;;;;1.20;1.03;;;9.80;98.00;;;;;;4972641;28;20460;-61
2022/11/22 12:27:31;;;;;;;1.20;1.00;;;9.80;98.00;;;;;;4972360;28;20470;-61
2022/11/22 12:29:59;;;;;;;1.20;1.00;;;9.90;98.00;;;;;;4972242;28;20469;-61
2022/11/22 12:32:32;;;;;;;1.20;1.10;;;10.10;98.00;;;;;;4955041;28;20462;-61
2022/11/22 12:35:05;;;;;;;1.50;1.23;;;10.10;98.00;;;;;;4972141;28;20480;-61
2022/11/22 12:37:40;;;;;;;1.70;1.23;;;10.00;98.00;;;;;;4971851;28;20497;-61
2022/11/22 12:40:16;;;;;;;2.30;1.03;;;10.00;98.00;;;;;;4972072;28;20592;-62
2022/11/22 12:42:47;;;;;;;1.20;0.90;;;10.00;98.00;;;;;;4971912;28;20461;-61
2022/11/22 12:45:24;;;;;;;1.40;1.10;;;10.10;98.00;;;;;;4955216;28;20459;-61
2022/11/22 12:47:53;;;;;;;1.50;1.00;;;10.30;98.00;;;;;;4970972;28;20467;-62
2022/11/22 12:50:26;;;;;;;1.30;1.17;;;10.30;98.00;;;;;;4970702;28;20477;-62
2022/11/22 12:52:59;;;;;;;1.40;1.07;;;10.30;98.00;;;;;;4971803;28;20465;-62
2022/11/22 12:55:29;;;;;;;4.93;1.47;;;10.40;98.00;;;;;;4971875;28;20461;-62
2022/11/22 12:58:03;;;;;;;1.60;1.33;;;10.50;98.00;;;;;;4971791;28;20487;-61
2022/11/22 13:00:35;;;;;;;1.90;1.27;;;10.50;98.00;;;;;;4971746;28;20469;-61
2022/11/22 13:03:08;;;;;;;1.30;1.10;;;10.60;98.00;;;;;;4971853;28;20500;-61
2022/11/22 13:05:41;;;;;;;1.20;1.07;;;10.50;98.00;;;;;;4973171;28;20466;-61
2022/11/22 13:08:15;;;;;;;2.10;1.40;;;10.60;98.00;;;;;;4974343;28;20466;-61
2022/11/22 13:10:47;;;;;;;1.60;1.10;;;10.60;98.00;;;;;;4974141;28;20485;-61
2022/11/22 13:13:21;;;;;;;1.53;1.00;;;10.60;98.00;;;;;;4973451;28;20470;-62
2022/11/22 13:15:51;;;;;;;1.93;1.30;;;10.40;98.00;;;;;;4974358;28;20993;-61
2022/11/22 13:18:18;;;;;;;1.20;1.10;;;10.30;98.00;;;;;;4974051;28;20493;-61
2022/11/22 13:20:53;;;;;;;1.70;1.10;;;10.30;98.00;;;;;;4974244;28;20461;-61